sensor_id;sensor_type;location;lat;lon;timestamp;temperature;humidity
8565;DHT22;4320;51.498;6.556;2023-12-20T00:00:51;8.50;1.00
8565;DHT22;4320;51.498;6.556;2023-12-20T00:03:17;8.50;1.00
8565;DHT22;4320;51.498;6.556;2023-12-20T00:05:43;8.40;1.00
8565;DHT22;4320;51.498;6.556;2023-12-20T00:08:09;8.40;1.00
8565;DHT22;4320;51.498;6.556;2023-12-20T00:10:35;8.50;1.00
8565;DHT22;4320;51.498;6.556;2023-12-20T00:13:00;8.50;1.00
8565;DHT22;4320;51.498;6.556;2023-12-20T00:15:26;8.30;1.00
8565;DHT22;4320;51.498;6.556;2023-12-20T00:17:51;8.40;1.00
8565;DHT22;4320;51.498;6.556;2023-12-20T00:20:17;8.40;1.00
8565;DHT22;4320;51.498;6.556;2023-12-20T00:22:43;8.40;1.00
8565;DHT22;4320;51.498;6.556;2023-12-20T00:25:08;8.50;1.00
8565;DHT22;4320;51.498;6.556;2023-12-20T00:27:34;8.50;1.00
8565;DHT22;4320;51.498;6.556;2023-12-20T00:30:00;8.40;99.90
8565;DHT22;4320;51.498;6.556;2023-12-20T00:32:25;8.40;99.90
8565;DHT22;4320;51.498;6.556;2023-12-20T00:34:51;8.50;99.90
8565;DHT22;4320;51.498;6.556;2023-12-20T00:37:16;8.40;99.90
8565;DHT22;4320;51.498;6.556;2023-12-20T00:39:42;8.20;99.90
8565;DHT22;4320;51.498;6.556;2023-12-20T00:42:08;8.20;99.90
8565;DHT22;4320;51.498;6.556;2023-12-20T00:44:33;8.20;99.90
8565;DHT22;4320;51.498;6.556;2023-12-20T00:46:59;8.20;99.90
8565;DHT22;4320;51.498;6.556;2023-12-20T00:49:24;8.30;99.90
8565;DHT22;4320;51.498;6.556;2023-12-20T00:51:50;8.40;99.90
8565;DHT22;4320;51.498;6.556;2023-12-20T00:54:17;8.40;99.90
8565;DHT22;4320;51.498;6.556;2023-12-20T00:56:43;8.40;99.90
8565;DHT22;4320;51.498;6.556;2023-12-20T00:59:09;8.50;99.90
8565;DHT22;4320;51.498;6.556;2023-12-20T01:01:35;8.30;99.90
8565;DHT22;4320;51.498;6.556;2023-12-20T01:04:00;8.40;99.90
8565;DHT22;4320;51.498;6.556;2023-12-20T01:06:26;8.40;99.90
8565;DHT22;4320;51.498;6.556;2023-12-20T01:08:51;8.40;99.90
8565;DHT22;4320;51.498;6.556;2023-12-20T01:11:17;8.40;99.90
8565;DHT22;4320;51.498;6.556;2023-12-20T01:13:42;8.30;99.90
8565;DHT22;4320;51.498;6.556;2023-12-20T01:16:10;8.20;99.90
8565;DHT22;4320;51.498;6.556;2023-12-20T01:18:36;8.20;99.90
8565;DHT22;4320;51.498;6.556;2023-12-20T01:21:03;8.20;99.90
8565;DHT22;4320;51.498;6.556;2023-12-20T01:23:28;8.20;99.90
8565;DHT22;4320;51.498;6.556;2023-12-20T01:25:55;8.20;99.90
8565;DHT22;4320;51.498;6.556;2023-12-20T01:28:20;8.20;99.90
8565;DHT22;4320;51.498;6.556;2023-12-20T01:30:46;8.10;99.90
8565;DHT22;4320;51.498;6.556;2023-12-20T01:33:11;7.90;99.90
8565;DHT22;4320;51.498;6.556;2023-12-20T01:35:38;7.70;99.90
8565;DHT22;4320;51.498;6.556;2023-12-20T01:38:04;7.70;99.90
8565;DHT22;4320;51.498;6.556;2023-12-20T01:40:29;7.90;99.90
8565;DHT22;4320;51.498;6.556;2023-12-20T01:43:04;7.80;99.90
8565;DHT22;4320;51.498;6.556;2023-12-20T01:45:31;7.90;99.90
8565;DHT22;4320;51.498;6.556;2023-12-20T01:47:57;7.90;99.90
8565;DHT22;4320;51.498;6.556;2023-12-20T01:50:24;7.80;99.90
8565;DHT22;4320;51.498;6.556;2023-12-20T01:52:50;7.60;99.90
8565;DHT22;4320;51.498;6.556;2023-12-20T01:55:18;7.50;99.90
8565;DHT22;4320;51.498;6.556;2023-12-20T01:57:45;7.50;99.90
8565;DHT22;4320;51.498;6.556;2023-12-20T02:00:12;7.50;99.90
8565;DHT22;4320;51.498;6.556;2023-12-20T02:02:40;7.50;99.90
8565;DHT22;4320;51.498;6.556;2023-12-20T02:05:06;7.50;99.90
8565;DHT22;4320;51.498;6.556;2023-12-20T02:07:32;7.50;99.90
8565;DHT22;4320;51.498;6.556;2023-12-20T02:10:00;7.40;99.90
8565;DHT22;4320;51.498;6.556;2023-12-20T02:12:26;7.50;99.90
8565;DHT22;4320;51.498;6.556;2023-12-20T02:14:51;7.50;99.90
8565;DHT22;4320;51.498;6.556;2023-12-20T02:17:17;7.50;99.90
8565;DHT22;4320;51.498;6.556;2023-12-20T02:19:43;7.50;99.90
8565;DHT22;4320;51.498;6.556;2023-12-20T02:22:12;7.40;99.90
8565;DHT22;4320;51.498;6.556;2023-12-20T02:24:38;7.40;99.90
8565;DHT22;4320;51.498;6.556;2023-12-20T02:27:05;7.40;99.90
8565;DHT22;4320;51.498;6.556;2023-12-20T02:29:35;7.50;99.90
8565;DHT22;4320;51.498;6.556;2023-12-20T02:32:01;7.40;99.90
8565;DHT22;4320;51.498;6.556;2023-12-20T02:34:27;7.40;99.90
8565;DHT22;4320;51.498;6.556;2023-12-20T02:36:52;7.30;99.90
8565;DHT22;4320;51.498;6.556;2023-12-20T02:39:19;7.20;99.90
8565;DHT22;4320;51.498;6.556;2023-12-20T02:41:44;7.20;99.90
8565;DHT22;4320;51.498;6.556;2023-12-20T02:44:10;7.10;99.90
8565;DHT22;4320;51.498;6.556;2023-12-20T02:46:36;7.10;99.90
8565;DHT22;4320;51.498;6.556;2023-12-20T02:49:01;7.10;99.90
8565;DHT22;4320;51.498;6.556;2023-12-20T02:51:27;7.10;99.90
8565;DHT22;4320;51.498;6.556;2023-12-20T02:53:52;7.00;99.90
8565;DHT22;4320;51.498;6.556;2023-12-20T02:56:18;7.10;99.90
8565;DHT22;4320;51.498;6.556;2023-12-20T02:58:44;7.10;99.90
8565;DHT22;4320;51.498;6.556;2023-12-20T03:01:09;7.30;99.90
8565;DHT22;4320;51.498;6.556;2023-12-20T03:03:35;7.20;99.90
8565;DHT22;4320;51.498;6.556;2023-12-20T03:06:00;7.10;99.90
8565;DHT22;4320;51.498;6.556;2023-12-20T03:08:26;7.20;99.90
8565;DHT22;4320;51.498;6.556;2023-12-20T03:10:51;7.30;99.90
8565;DHT22;4320;51.498;6.556;2023-12-20T03:13:18;7.20;99.90
8565;DHT22;4320;51.498;6.556;2023-12-20T03:15:45;7.30;99.90
8565;DHT22;4320;51.498;6.556;2023-12-20T03:18:11;7.30;99.90
8565;DHT22;4320;51.498;6.556;2023-12-20T03:20:36;7.40;99.90
8565;DHT22;4320;51.498;6.556;2023-12-20T03:23:02;7.30;99.90
8565;DHT22;4320;51.498;6.556;2023-12-20T03:25:28;7.30;99.90
8565;DHT22;4320;51.498;6.556;2023-12-20T03:27:53;7.30;99.90
8565;DHT22;4320;51.498;6.556;2023-12-20T03:30:19;7.30;99.90
8565;DHT22;4320;51.498;6.556;2023-12-20T03:32:45;7.20;99.90
8565;DHT22;4320;51.498;6.556;2023-12-20T03:35:11;7.30;99.90
8565;DHT22;4320;51.498;6.556;2023-12-20T03:37:37;7.20;99.90
8565;DHT22;4320;51.498;6.556;2023-12-20T03:40:03;7.10;99.90
8565;DHT22;4320;51.498;6.556;2023-12-20T03:42:28;7.10;99.90
8565;DHT22;4320;51.498;6.556;2023-12-20T03:44:54;6.90;99.90
8565;DHT22;4320;51.498;6.556;2023-12-20T03:47:20;6.90;99.90
8565;DHT22;4320;51.498;6.556;2023-12-20T03:49:45;6.90;99.90
8565;DHT22;4320;51.498;6.556;2023-12-20T03:52:11;6.90;99.90
8565;DHT22;4320;51.498;6.556;2023-12-20T03:54:37;7.00;99.90
8565;DHT22;4320;51.498;6.556;2023-12-20T03:57:03;7.00;99.90
8565;DHT22;4320;51.498;6.556;2023-12-20T03:59:30;7.10;99.90
8565;DHT22;4320;51.498;6.556;2023-12-20T04:01:55;7.00;99.90
8565;DHT22;4320;51.498;6.556;2023-12-20T04:04:21;6.90;99.90
8565;DHT22;4320;51.498;6.556;2023-12-20T04:06:47;7.00;99.90
8565;DHT22;4320;51.498;6.556;2023-12-20T04:09:12;7.10;99.90
8565;DHT22;4320;51.498;6.556;2023-12-20T04:11:38;7.10;99.90
8565;DHT22;4320;51.498;6.556;2023-12-20T04:14:04;7.20;99.90
8565;DHT22;4320;51.498;6.556;2023-12-20T04:16:32;7.10;99.90
8565;DHT22;4320;51.498;6.556;2023-12-20T04:18:58;6.90;99.90
8565;DHT22;4320;51.498;6.556;2023-12-20T04:21:23;6.80;99.90
8565;DHT22;4320;51.498;6.556;2023-12-20T04:23:49;6.90;99.90
8565;DHT22;4320;51.498;6.556;2023-12-20T04:26:15;6.90;99.90
8565;DHT22;4320;51.498;6.556;2023-12-20T04:28:40;6.90;99.90
8565;DHT22;4320;51.498;6.556;2023-12-20T04:31:08;7.00;99.90
8565;DHT22;4320;51.498;6.556;2023-12-20T04:33:34;6.90;99.90
8565;DHT22;4320;51.498;6.556;2023-12-20T04:35:59;6.90;99.90
8565;DHT22;4320;51.498;6.556;2023-12-20T04:38:25;6.90;99.90
8565;DHT22;4320;51.498;6.556;2023-12-20T04:40:51;6.90;99.90
8565;DHT22;4320;51.498;6.556;2023-12-20T04:43:17;6.90;99.90
8565;DHT22;4320;51.498;6.556;2023-12-20T04:45:43;6.90;99.90
8565;DHT22;4320;51.498;6.556;2023-12-20T04:48:08;6.90;99.90
8565;DHT22;4320;51.498;6.556;2023-12-20T04:50:34;6.80;99.90
8565;DHT22;4320;51.498;6.556;2023-12-20T04:53:00;6.80;99.90
8565;DHT22;4320;51.498;6.556;2023-12-20T04:55:25;6.80;99.90
8565;DHT22;4320;51.498;6.556;2023-12-20T04:57:51;6.90;99.90
8565;DHT22;4320;51.498;6.556;2023-12-20T05:00:16;6.90;99.90
8565;DHT22;4320;51.498;6.556;2023-12-20T05:02:42;6.90;99.90
8565;DHT22;4320;51.498;6.556;2023-12-20T05:05:08;7.00;99.90
8565;DHT22;4320;51.498;6.556;2023-12-20T05:07:33;6.90;99.90
8565;DHT22;4320;51.498;6.556;2023-12-20T05:09:59;7.00;99.90
8565;DHT22;4320;51.498;6.556;2023-12-20T05:12:25;7.10;99.90
8565;DHT22;4320;51.498;6.556;2023-12-20T05:14:51;7.00;99.90
8565;DHT22;4320;51.498;6.556;2023-12-20T05:17:17;7.00;99.90
8565;DHT22;4320;51.498;6.556;2023-12-20T05:19:43;7.10;99.90
8565;DHT22;4320;51.498;6.556;2023-12-20T05:22:09;7.20;99.90
8565;DHT22;4320;51.498;6.556;2023-12-20T05:24:35;7.30;99.90
8565;DHT22;4320;51.498;6.556;2023-12-20T05:27:00;7.20;99.90
8565;DHT22;4320;51.498;6.556;2023-12-20T05:29:26;7.30;99.90
8565;DHT22;4320;51.498;6.556;2023-12-20T05:31:51;7.30;99.90
8565;DHT22;4320;51.498;6.556;2023-12-20T05:34:17;7.10;99.90
8565;DHT22;4320;51.498;6.556;2023-12-20T05:36:43;7.20;99.90
8565;DHT22;4320;51.498;6.556;2023-12-20T05:39:08;7.30;99.90
8565;DHT22;4320;51.498;6.556;2023-12-20T05:41:34;7.40;99.90
8565;DHT22;4320;51.498;6.556;2023-12-20T05:43:59;7.20;99.90
8565;DHT22;4320;51.498;6.556;2023-12-20T05:46:25;7.30;99.90
8565;DHT22;4320;51.498;6.556;2023-12-20T05:48:51;7.40;99.90
8565;DHT22;4320;51.498;6.556;2023-12-20T05:51:17;7.40;99.90
8565;DHT22;4320;51.498;6.556;2023-12-20T05:53:43;7.40;99.90
8565;DHT22;4320;51.498;6.556;2023-12-20T05:56:09;7.60;99.90
8565;DHT22;4320;51.498;6.556;2023-12-20T05:58:35;7.50;99.90
8565;DHT22;4320;51.498;6.556;2023-12-20T06:01:03;7.40;99.90
8565;DHT22;4320;51.498;6.556;2023-12-20T06:03:29;7.40;99.90
8565;DHT22;4320;51.498;6.556;2023-12-20T06:05:54;7.50;99.90
8565;DHT22;4320;51.498;6.556;2023-12-20T06:08:20;7.50;99.90
8565;DHT22;4320;51.498;6.556;2023-12-20T06:10:45;7.50;99.90
8565;DHT22;4320;51.498;6.556;2023-12-20T06:13:11;7.50;99.90
8565;DHT22;4320;51.498;6.556;2023-12-20T06:15:38;7.50;99.90
8565;DHT22;4320;51.498;6.556;2023-12-20T06:18:08;7.40;99.90
8565;DHT22;4320;51.498;6.556;2023-12-20T06:20:33;7.40;99.90
8565;DHT22;4320;51.498;6.556;2023-12-20T06:22:59;7.40;99.90
8565;DHT22;4320;51.498;6.556;2023-12-20T06:25:25;7.40;99.90
8565;DHT22;4320;51.498;6.556;2023-12-20T06:27:50;7.40;99.90
8565;DHT22;4320;51.498;6.556;2023-12-20T06:30:16;7.40;99.90
8565;DHT22;4320;51.498;6.556;2023-12-20T06:32:42;7.50;99.90
8565;DHT22;4320;51.498;6.556;2023-12-20T06:35:09;7.50;99.90
8565;DHT22;4320;51.498;6.556;2023-12-20T06:37:34;7.50;99.90
8565;DHT22;4320;51.498;6.556;2023-12-20T06:40:00;7.40;99.90
8565;DHT22;4320;51.498;6.556;2023-12-20T06:42:26;7.40;99.90
8565;DHT22;4320;51.498;6.556;2023-12-20T06:44:52;7.50;99.90
8565;DHT22;4320;51.498;6.556;2023-12-20T06:47:17;7.50;99.90
8565;DHT22;4320;51.498;6.556;2023-12-20T06:49:43;7.50;99.90
8565;DHT22;4320;51.498;6.556;2023-12-20T06:52:08;7.50;99.90
8565;DHT22;4320;51.498;6.556;2023-12-20T06:54:34;7.60;99.90
8565;DHT22;4320;51.498;6.556;2023-12-20T06:57:00;7.60;99.90
8565;DHT22;4320;51.498;6.556;2023-12-20T06:59:26;7.60;99.90
8565;DHT22;4320;51.498;6.556;2023-12-20T07:01:51;7.70;99.90
8565;DHT22;4320;51.498;6.556;2023-12-20T07:04:18;7.80;99.90
8565;DHT22;4320;51.498;6.556;2023-12-20T07:06:46;7.80;99.90
8565;DHT22;4320;51.498;6.556;2023-12-20T07:09:13;7.80;99.90
8565;DHT22;4320;51.498;6.556;2023-12-20T07:11:39;7.90;99.90
8565;DHT22;4320;51.498;6.556;2023-12-20T07:14:05;7.80;99.90
8565;DHT22;4320;51.498;6.556;2023-12-20T07:16:33;7.80;99.90
8565;DHT22;4320;51.498;6.556;2023-12-20T07:18:58;7.80;99.90
8565;DHT22;4320;51.498;6.556;2023-12-20T07:21:24;7.80;99.90
8565;DHT22;4320;51.498;6.556;2023-12-20T07:23:49;7.80;99.90
8565;DHT22;4320;51.498;6.556;2023-12-20T07:26:15;7.80;99.90
8565;DHT22;4320;51.498;6.556;2023-12-20T07:28:41;7.80;99.90
8565;DHT22;4320;51.498;6.556;2023-12-20T07:31:06;7.80;99.90
8565;DHT22;4320;51.498;6.556;2023-12-20T07:33:32;7.80;99.90
8565;DHT22;4320;51.498;6.556;2023-12-20T07:35:59;7.80;99.90
8565;DHT22;4320;51.498;6.556;2023-12-20T07:38:25;7.80;99.90
8565;DHT22;4320;51.498;6.556;2023-12-20T07:40:50;7.80;99.90
8565;DHT22;4320;51.498;6.556;2023-12-20T07:43:16;7.80;99.90
8565;DHT22;4320;51.498;6.556;2023-12-20T07:45:41;7.70;99.90
8565;DHT22;4320;51.498;6.556;2023-12-20T07:48:07;7.70;99.90
8565;DHT22;4320;51.498;6.556;2023-12-20T07:50:33;7.80;99.90
8565;DHT22;4320;51.498;6.556;2023-12-20T07:52:58;7.80;99.90
8565;DHT22;4320;51.498;6.556;2023-12-20T07:55:26;7.60;99.90
8565;DHT22;4320;51.498;6.556;2023-12-20T07:57:52;7.70;99.90
8565;DHT22;4320;51.498;6.556;2023-12-20T08:00:18;7.70;99.90
8565;DHT22;4320;51.498;6.556;2023-12-20T08:02:43;7.70;99.90
8565;DHT22;4320;51.498;6.556;2023-12-20T08:05:09;7.70;99.90
8565;DHT22;4320;51.498;6.556;2023-12-20T08:07:35;7.70;99.90
8565;DHT22;4320;51.498;6.556;2023-12-20T08:10:00;7.70;99.90
8565;DHT22;4320;51.498;6.556;2023-12-20T08:12:26;7.70;99.90
8565;DHT22;4320;51.498;6.556;2023-12-20T08:14:53;7.60;99.90
8565;DHT22;4320;51.498;6.556;2023-12-20T08:17:19;7.60;99.90
8565;DHT22;4320;51.498;6.556;2023-12-20T08:19:44;7.70;99.90
8565;DHT22;4320;51.498;6.556;2023-12-20T08:22:11;7.80;99.90
8565;DHT22;4320;51.498;6.556;2023-12-20T08:24:37;7.80;99.90
8565;DHT22;4320;51.498;6.556;2023-12-20T08:27:03;7.70;99.90
8565;DHT22;4320;51.498;6.556;2023-12-20T08:29:29;7.60;99.90
8565;DHT22;4320;51.498;6.556;2023-12-20T08:31:55;7.60;99.90
8565;DHT22;4320;51.498;6.556;2023-12-20T08:34:22;7.70;99.90
8565;DHT22;4320;51.498;6.556;2023-12-20T08:36:47;7.70;99.90
8565;DHT22;4320;51.498;6.556;2023-12-20T08:39:13;7.70;99.90
8565;DHT22;4320;51.498;6.556;2023-12-20T08:41:39;7.70;99.90
8565;DHT22;4320;51.498;6.556;2023-12-20T08:44:04;7.60;99.90
8565;DHT22;4320;51.498;6.556;2023-12-20T08:46:30;7.60;99.90
8565;DHT22;4320;51.498;6.556;2023-12-20T08:48:55;7.60;99.90
8565;DHT22;4320;51.498;6.556;2023-12-20T08:51:21;7.60;99.90
8565;DHT22;4320;51.498;6.556;2023-12-20T08:53:49;7.60;99.90
8565;DHT22;4320;51.498;6.556;2023-12-20T08:56:15;7.70;99.90
8565;DHT22;4320;51.498;6.556;2023-12-20T08:58:40;7.70;99.90
8565;DHT22;4320;51.498;6.556;2023-12-20T09:01:07;7.70;99.90
8565;DHT22;4320;51.498;6.556;2023-12-20T09:03:33;7.70;99.90
8565;DHT22;4320;51.498;6.556;2023-12-20T09:05:58;7.70;99.90
8565;DHT22;4320;51.498;6.556;2023-12-20T09:08:24;7.80;99.90
8565;DHT22;4320;51.498;6.556;2023-12-20T09:10:49;7.80;99.90
8565;DHT22;4320;51.498;6.556;2023-12-20T09:13:18;7.70;99.90
8565;DHT22;4320;51.498;6.556;2023-12-20T09:15:43;7.70;99.90
8565;DHT22;4320;51.498;6.556;2023-12-20T09:18:09;7.60;99.90
8565;DHT22;4320;51.498;6.556;2023-12-20T09:20:35;7.60;99.90
8565;DHT22;4320;51.498;6.556;2023-12-20T09:23:00;7.70;99.90
8565;DHT22;4320;51.498;6.556;2023-12-20T09:25:26;7.80;99.90
8565;DHT22;4320;51.498;6.556;2023-12-20T09:27:52;7.80;99.90
8565;DHT22;4320;51.498;6.556;2023-12-20T09:30:18;7.80;99.90
8565;DHT22;4320;51.498;6.556;2023-12-20T09:32:44;7.90;99.90
8565;DHT22;4320;51.498;6.556;2023-12-20T09:35:10;7.90;99.90
8565;DHT22;4320;51.498;6.556;2023-12-20T09:37:36;7.90;99.90
8565;DHT22;4320;51.498;6.556;2023-12-20T09:40:02;7.90;99.90
8565;DHT22;4320;51.498;6.556;2023-12-20T09:42:48;7.90;99.90
8565;DHT22;4320;51.498;6.556;2023-12-20T09:45:15;7.90;99.90
8565;DHT22;4320;51.498;6.556;2023-12-20T09:47:43;7.90;99.90
8565;DHT22;4320;51.498;6.556;2023-12-20T09:50:09;8.00;99.90
8565;DHT22;4320;51.498;6.556;2023-12-20T09:52:36;7.90;99.90
8565;DHT22;4320;51.498;6.556;2023-12-20T09:55:04;8.00;99.90
8565;DHT22;4320;51.498;6.556;2023-12-20T09:57:31;8.00;99.90
8565;DHT22;4320;51.498;6.556;2023-12-20T09:59:57;8.00;99.90
8565;DHT22;4320;51.498;6.556;2023-12-20T10:02:25;8.10;99.90
8565;DHT22;4320;51.498;6.556;2023-12-20T10:04:53;8.10;99.90
8565;DHT22;4320;51.498;6.556;2023-12-20T10:07:19;8.20;99.90
8565;DHT22;4320;51.498;6.556;2023-12-20T10:09:46;8.20;99.90
8565;DHT22;4320;51.498;6.556;2023-12-20T10:12:12;8.20;99.90
8565;DHT22;4320;51.498;6.556;2023-12-20T10:14:39;8.30;99.90
8565;DHT22;4320;51.498;6.556;2023-12-20T10:17:05;8.40;99.90
8565;DHT22;4320;51.498;6.556;2023-12-20T10:19:32;8.50;99.90
8565;DHT22;4320;51.498;6.556;2023-12-20T10:21:59;8.50;99.90
8565;DHT22;4320;51.498;6.556;2023-12-20T10:24:25;8.40;99.90
8565;DHT22;4320;51.498;6.556;2023-12-20T10:29:40;8.20;99.90
8565;DHT22;4320;51.498;6.556;2023-12-20T10:32:23;8.30;99.90
8565;DHT22;4320;51.498;6.556;2023-12-20T10:34:49;8.40;99.90
8565;DHT22;4320;51.498;6.556;2023-12-20T10:37:15;8.50;99.90
8565;DHT22;4320;51.498;6.556;2023-12-20T10:39:42;8.40;99.90
8565;DHT22;4320;51.498;6.556;2023-12-20T10:42:11;8.30;99.90
8565;DHT22;4320;51.498;6.556;2023-12-20T10:44:36;8.30;99.90
8565;DHT22;4320;51.498;6.556;2023-12-20T10:47:03;8.40;99.90
8565;DHT22;4320;51.498;6.556;2023-12-20T10:49:30;8.40;99.90
8565;DHT22;4320;51.498;6.556;2023-12-20T10:51:57;8.50;99.90
8565;DHT22;4320;51.498;6.556;2023-12-20T10:54:25;8.50;99.90
8565;DHT22;4320;51.498;6.556;2023-12-20T10:56:52;8.50;99.90
8565;DHT22;4320;51.498;6.556;2023-12-20T10:59:19;8.40;99.90
8565;DHT22;4320;51.498;6.556;2023-12-20T11:01:47;8.30;99.90
8565;DHT22;4320;51.498;6.556;2023-12-20T11:07:42;8.50;99.90
8565;DHT22;4320;51.498;6.556;2023-12-20T11:10:26;8.50;99.90
8565;DHT22;4320;51.498;6.556;2023-12-20T11:13:05;8.40;99.90
8565;DHT22;4320;51.498;6.556;2023-12-20T11:15:35;8.60;99.90
8565;DHT22;4320;51.498;6.556;2023-12-20T11:18:01;8.70;99.90
8565;DHT22;4320;51.498;6.556;2023-12-20T11:20:41;8.60;99.90
8565;DHT22;4320;51.498;6.556;2023-12-20T11:23:08;8.70;99.90
8565;DHT22;4320;51.498;6.556;2023-12-20T11:25:52;8.70;99.90
8565;DHT22;4320;51.498;6.556;2023-12-20T11:28:23;8.70;99.90
8565;DHT22;4320;51.498;6.556;2023-12-20T11:30:54;8.80;99.90
8565;DHT22;4320;51.498;6.556;2023-12-20T11:33:24;8.80;99.90
8565;DHT22;4320;51.498;6.556;2023-12-20T11:35:50;8.70;99.90
8565;DHT22;4320;51.498;6.556;2023-12-20T11:38:16;8.70;99.90
8565;DHT22;4320;51.498;6.556;2023-12-20T11:40:43;8.50;99.90
8565;DHT22;4320;51.498;6.556;2023-12-20T11:43:09;8.50;99.90
8565;DHT22;4320;51.498;6.556;2023-12-20T11:45:35;8.60;99.90
8565;DHT22;4320;51.498;6.556;2023-12-20T11:48:02;8.60;99.90
8565;DHT22;4320;51.498;6.556;2023-12-20T11:50:28;8.50;99.90
8565;DHT22;4320;51.498;6.556;2023-12-20T11:52:55;8.50;99.90
8565;DHT22;4320;51.498;6.556;2023-12-20T11:55:21;8.50;99.90
8565;DHT22;4320;51.498;6.556;2023-12-20T11:57:47;8.60;99.90
8565;DHT22;4320;51.498;6.556;2023-12-20T12:00:14;8.60;99.90
8565;DHT22;4320;51.498;6.556;2023-12-20T12:02:39;8.70;99.90
8565;DHT22;4320;51.498;6.556;2023-12-20T12:05:06;8.60;99.90
8565;DHT22;4320;51.498;6.556;2023-12-20T12:07:32;8.60;99.90
8565;DHT22;4320;51.498;6.556;2023-12-20T12:09:57;8.60;99.90
8565;DHT22;4320;51.498;6.556;2023-12-20T12:12:23;8.70;99.90
8565;DHT22;4320;51.498;6.556;2023-12-20T12:14:50;8.70;99.90
8565;DHT22;4320;51.498;6.556;2023-12-20T12:17:16;8.70;99.90
8565;DHT22;4320;51.498;6.556;2023-12-20T12:19:43;8.70;99.90
8565;DHT22;4320;51.498;6.556;2023-12-20T12:24:46;8.80;99.90
8565;DHT22;4320;51.498;6.556;2023-12-20T12:27:13;8.90;99.90
8565;DHT22;4320;51.498;6.556;2023-12-20T12:29:39;8.80;99.90
8565;DHT22;4320;51.498;6.556;2023-12-20T12:32:06;8.80;99.90
8565;DHT22;4320;51.498;6.556;2023-12-20T12:34:35;8.90;99.90
8565;DHT22;4320;51.498;6.556;2023-12-20T12:37:03;8.90;99.90
8565;DHT22;4320;51.498;6.556;2023-12-20T12:39:29;8.80;99.90
8565;DHT22;4320;51.498;6.556;2023-12-20T12:41:55;8.80;99.90
8565;DHT22;4320;51.498;6.556;2023-12-20T12:44:21;8.70;99.90
8565;DHT22;4320;51.498;6.556;2023-12-20T12:46:49;8.70;99.90
8565;DHT22;4320;51.498;6.556;2023-12-20T12:49:19;8.80;99.90
8565;DHT22;4320;51.498;6.556;2023-12-20T12:51:45;8.80;99.90
8565;DHT22;4320;51.498;6.556;2023-12-20T12:54:11;8.70;99.90
8565;DHT22;4320;51.498;6.556;2023-12-20T12:56:38;8.70;99.90
8565;DHT22;4320;51.498;6.556;2023-12-20T12:59:05;8.70;99.90
8565;DHT22;4320;51.498;6.556;2023-12-20T13:01:31;8.70;99.90
8565;DHT22;4320;51.498;6.556;2023-12-20T13:03:56;8.70;99.90
8565;DHT22;4320;51.498;6.556;2023-12-20T13:06:22;8.70;99.90
8565;DHT22;4320;51.498;6.556;2023-12-20T13:08:48;8.70;99.90
8565;DHT22;4320;51.498;6.556;2023-12-20T13:11:14;8.70;99.90
8565;DHT22;4320;51.498;6.556;2023-12-20T13:13:39;8.60;99.90
8565;DHT22;4320;51.498;6.556;2023-12-20T13:16:05;8.70;99.90
8565;DHT22;4320;51.498;6.556;2023-12-20T13:18:31;8.60;99.90
8565;DHT22;4320;51.498;6.556;2023-12-20T13:20:56;8.60;99.90
8565;DHT22;4320;51.498;6.556;2023-12-20T13:23:22;8.60;99.90
8565;DHT22;4320;51.498;6.556;2023-12-20T13:25:48;8.50;99.90
8565;DHT22;4320;51.498;6.556;2023-12-20T13:28:13;8.50;99.90
8565;DHT22;4320;51.498;6.556;2023-12-20T13:30:39;8.50;99.90
8565;DHT22;4320;51.498;6.556;2023-12-20T13:33:05;8.60;99.90
8565;DHT22;4320;51.498;6.556;2023-12-20T13:35:31;8.60;99.90
8565;DHT22;4320;51.498;6.556;2023-12-20T13:37:58;8.70;99.90
8565;DHT22;4320;51.498;6.556;2023-12-20T13:40:24;8.70;99.90
8565;DHT22;4320;51.498;6.556;2023-12-20T13:42:49;8.60;99.90
8565;DHT22;4320;51.498;6.556;2023-12-20T13:45:15;8.70;99.90
8565;DHT22;4320;51.498;6.556;2023-12-20T13:47:41;8.80;99.90
8565;DHT22;4320;51.498;6.556;2023-12-20T13:50:06;8.80;99.90
8565;DHT22;4320;51.498;6.556;2023-12-20T13:52:32;8.60;99.90
8565;DHT22;4320;51.498;6.556;2023-12-20T13:54:58;8.50;99.90
8565;DHT22;4320;51.498;6.556;2023-12-20T13:57:23;8.50;99.90
8565;DHT22;4320;51.498;6.556;2023-12-20T13:59:49;8.50;99.90
8565;DHT22;4320;51.498;6.556;2023-12-20T14:02:14;8.50;99.90
8565;DHT22;4320;51.498;6.556;2023-12-20T14:04:42;8.60;99.90
8565;DHT22;4320;51.498;6.556;2023-12-20T14:07:07;8.70;99.90
8565;DHT22;4320;51.498;6.556;2023-12-20T14:09:33;8.70;99.90
8565;DHT22;4320;51.498;6.556;2023-12-20T14:11:59;8.70;99.90
8565;DHT22;4320;51.498;6.556;2023-12-20T14:14:25;8.60;99.90
8565;DHT22;4320;51.498;6.556;2023-12-20T14:16:50;8.60;99.90
8565;DHT22;4320;51.498;6.556;2023-12-20T14:19:16;8.60;99.90
8565;DHT22;4320;51.498;6.556;2023-12-20T14:21:42;8.70;99.90
8565;DHT22;4320;51.498;6.556;2023-12-20T14:24:07;8.70;99.90
8565;DHT22;4320;51.498;6.556;2023-12-20T14:26:33;8.70;99.90
8565;DHT22;4320;51.498;6.556;2023-12-20T14:28:59;8.60;99.90
8565;DHT22;4320;51.498;6.556;2023-12-20T14:31:24;8.60;99.90
8565;DHT22;4320;51.498;6.556;2023-12-20T14:33:50;8.70;99.90
8565;DHT22;4320;51.498;6.556;2023-12-20T14:36:18;8.70;99.90
8565;DHT22;4320;51.498;6.556;2023-12-20T14:38:45;8.70;99.90
8565;DHT22;4320;51.498;6.556;2023-12-20T14:41:12;8.60;99.90
8565;DHT22;4320;51.498;6.556;2023-12-20T14:43:38;8.60;99.90
8565;DHT22;4320;51.498;6.556;2023-12-20T14:46:03;8.60;99.90
8565;DHT22;4320;51.498;6.556;2023-12-20T14:48:31;8.60;99.90
8565;DHT22;4320;51.498;6.556;2023-12-20T14:50:57;8.80;99.90
8565;DHT22;4320;51.498;6.556;2023-12-20T14:53:24;8.80;99.90
8565;DHT22;4320;51.498;6.556;2023-12-20T14:55:51;8.90;99.90
8565;DHT22;4320;51.498;6.556;2023-12-20T14:58:17;8.90;99.90
8565;DHT22;4320;51.498;6.556;2023-12-20T15:00:42;8.90;99.90
8565;DHT22;4320;51.498;6.556;2023-12-20T15:03:09;8.90;99.90
8565;DHT22;4320;51.498;6.556;2023-12-20T15:05:34;9.00;99.90
8565;DHT22;4320;51.498;6.556;2023-12-20T15:08:01;8.90;99.90
8565;DHT22;4320;51.498;6.556;2023-12-20T15:10:26;9.00;99.90
8565;DHT22;4320;51.498;6.556;2023-12-20T15:12:52;8.90;99.90
8565;DHT22;4320;51.498;6.556;2023-12-20T15:15:18;9.00;99.90
8565;DHT22;4320;51.498;6.556;2023-12-20T15:17:44;8.90;99.90
8565;DHT22;4320;51.498;6.556;2023-12-20T15:20:10;8.80;99.90
8565;DHT22;4320;51.498;6.556;2023-12-20T15:22:36;8.70;99.90
8565;DHT22;4320;51.498;6.556;2023-12-20T15:25:03;8.80;99.90
8565;DHT22;4320;51.498;6.556;2023-12-20T15:27:30;8.80;99.90
8565;DHT22;4320;51.498;6.556;2023-12-20T15:29:56;8.70;99.90
8565;DHT22;4320;51.498;6.556;2023-12-20T15:32:22;8.70;99.90
8565;DHT22;4320;51.498;6.556;2023-12-20T15:34:48;8.80;99.90
8565;DHT22;4320;51.498;6.556;2023-12-20T15:37:14;8.70;99.90
8565;DHT22;4320;51.498;6.556;2023-12-20T15:39:41;8.70;99.90
8565;DHT22;4320;51.498;6.556;2023-12-20T15:42:06;8.90;99.90
8565;DHT22;4320;51.498;6.556;2023-12-20T15:44:32;8.80;99.90
8565;DHT22;4320;51.498;6.556;2023-12-20T15:46:58;8.70;99.90
8565;DHT22;4320;51.498;6.556;2023-12-20T15:49:23;8.80;99.90
8565;DHT22;4320;51.498;6.556;2023-12-20T15:51:49;8.80;99.90
8565;DHT22;4320;51.498;6.556;2023-12-20T15:54:14;8.80;99.90
8565;DHT22;4320;51.498;6.556;2023-12-20T15:56:40;8.90;99.90
8565;DHT22;4320;51.498;6.556;2023-12-20T15:59:07;8.90;99.90
8565;DHT22;4320;51.498;6.556;2023-12-20T16:01:33;8.90;99.90
8565;DHT22;4320;51.498;6.556;2023-12-20T16:04:01;8.90;99.90
8565;DHT22;4320;51.498;6.556;2023-12-20T16:06:26;8.90;99.90
8565;DHT22;4320;51.498;6.556;2023-12-20T16:08:53;8.90;99.90
8565;DHT22;4320;51.498;6.556;2023-12-20T16:11:18;8.90;99.90
8565;DHT22;4320;51.498;6.556;2023-12-20T16:13:44;8.90;99.90
8565;DHT22;4320;51.498;6.556;2023-12-20T16:16:10;8.90;99.90
8565;DHT22;4320;51.498;6.556;2023-12-20T16:18:36;9.00;99.90
8565;DHT22;4320;51.498;6.556;2023-12-20T16:21:02;9.00;99.90